sensor_id;sensor_type;location;lat;lon;timestamp;P1;durP1;ratioP1;P2;durP2;ratioP2
10232;SDS011;5161;48.174;11.756;2023-06-05T00:01:18;8.30;;;7.60;;
10232;SDS011;5161;48.174;11.756;2023-06-05T00:03:43;8.73;;;7.97;;
10232;SDS011;5161;48.174;11.756;2023-06-05T00:06:09;9.00;;;8.20;;
10232;SDS011;5161;48.174;11.756;2023-06-05T00:08:35;9.00;;;8.30;;
10232;SDS011;5161;48.174;11.756;2023-06-05T00:11:01;9.53;;;8.60;;
10232;SDS011;5161;48.174;11.756;2023-06-05T00:13:26;8.70;;;7.93;;
10232;SDS011;5161;48.174;11.756;2023-06-05T00:15:52;9.13;;;8.20;;
10232;SDS011;5161;48.174;11.756;2023-06-05T00:18:18;9.90;;;9.00;;
10232;SDS011;5161;48.174;11.756;2023-06-05T00:20:44;9.73;;;8.83;;
10232;SDS011;5161;48.174;11.756;2023-06-05T00:23:10;9.47;;;8.57;;
10232;SDS011;5161;48.174;11.756;2023-06-05T00:25:38;9.60;;;8.60;;
10232;SDS011;5161;48.174;11.756;2023-06-05T00:28:04;9.53;;;8.70;;
10232;SDS011;5161;48.174;11.756;2023-06-05T00:30:30;10.57;;;8.40;;
10232;SDS011;5161;48.174;11.756;2023-06-05T00:32:56;9.77;;;8.83;;
10232;SDS011;5161;48.174;11.756;2023-06-05T00:35:21;10.33;;;9.33;;
10232;SDS011;5161;48.174;11.756;2023-06-05T00:37:47;9.97;;;9.07;;
10232;SDS011;5161;48.174;11.756;2023-06-05T00:40:13;9.77;;;8.70;;
10232;SDS011;5161;48.174;11.756;2023-06-05T00:42:38;10.73;;;9.60;;
10232;SDS011;5161;48.174;11.756;2023-06-05T00:45:04;12.50;;;9.57;;
10232;SDS011;5161;48.174;11.756;2023-06-05T00:47:30;11.10;;;9.97;;
10232;SDS011;5161;48.174;11.756;2023-06-05T00:49:57;10.90;;;9.77;;
10232;SDS011;5161;48.174;11.756;2023-06-05T00:52:23;11.33;;;9.70;;
10232;SDS011;5161;48.174;11.756;2023-06-05T00:54:51;12.40;;;9.70;;
10232;SDS011;5161;48.174;11.756;2023-06-05T00:57:17;11.93;;;10.63;;
10232;SDS011;5161;48.174;11.756;2023-06-05T00:59:42;11.20;;;10.17;;
10232;SDS011;5161;48.174;11.756;2023-06-05T01:02:10;11.60;;;10.53;;
10232;SDS011;5161;48.174;11.756;2023-06-05T01:04:38;15.97;;;10.70;;
10232;SDS011;5161;48.174;11.756;2023-06-05T01:07:06;12.00;;;10.90;;
10232;SDS011;5161;48.174;11.756;2023-06-05T01:09:32;11.40;;;10.37;;
10232;SDS011;5161;48.174;11.756;2023-06-05T01:12:06;11.43;;;9.90;;
10232;SDS011;5161;48.174;11.756;2023-06-05T01:14:39;11.80;;;10.27;;
10232;SDS011;5161;48.174;11.756;2023-06-05T01:17:10;11.00;;;9.90;;
10232;SDS011;5161;48.174;11.756;2023-06-05T01:19:37;11.33;;;10.23;;
10232;SDS011;5161;48.174;11.756;2023-06-05T01:22:04;11.73;;;10.50;;
10232;SDS011;5161;48.174;11.756;2023-06-05T01:24:30;11.70;;;10.60;;
10232;SDS011;5161;48.174;11.756;2023-06-05T01:32:23;11.60;;;10.50;;
10232;SDS011;5161;48.174;11.756;2023-06-05T01:35:01;11.77;;;10.67;;
10232;SDS011;5161;48.174;11.756;2023-06-05T01:37:42;11.63;;;10.43;;
10232;SDS011;5161;48.174;11.756;2023-06-05T01:40:11;12.00;;;10.87;;
10232;SDS011;5161;48.174;11.756;2023-06-05T01:42:42;12.83;;;11.57;;
10232;SDS011;5161;48.174;11.756;2023-06-05T01:45:09;12.80;;;11.07;;
10232;SDS011;5161;48.174;11.756;2023-06-05T01:47:36;12.50;;;11.20;;
10232;SDS011;5161;48.174;11.756;2023-06-05T01:50:02;13.00;;;11.07;;
10232;SDS011;5161;48.174;11.756;2023-06-05T01:52:28;13.00;;;11.67;;
10232;SDS011;5161;48.174;11.756;2023-06-05T01:54:54;15.97;;;11.40;;
10232;SDS011;5161;48.174;11.756;2023-06-05T01:57:24;13.03;;;11.23;;
10232;SDS011;5161;48.174;11.756;2023-06-05T01:59:53;12.27;;;11.07;;
10232;SDS011;5161;48.174;11.756;2023-06-05T02:02:20;12.97;;;10.97;;
10232;SDS011;5161;48.174;11.756;2023-06-05T02:04:46;12.53;;;11.23;;
10232;SDS011;5161;48.174;11.756;2023-06-05T02:07:13;12.57;;;11.37;;
10232;SDS011;5161;48.174;11.756;2023-06-05T02:09:39;12.37;;;11.07;;
10232;SDS011;5161;48.174;11.756;2023-06-05T02:12:05;12.00;;;10.90;;
10232;SDS011;5161;48.174;11.756;2023-06-05T02:14:32;13.13;;;11.60;;
10232;SDS011;5161;48.174;11.756;2023-06-05T02:17:00;13.30;;;11.47;;
10232;SDS011;5161;48.174;11.756;2023-06-05T02:19:29;12.50;;;11.30;;
10232;SDS011;5161;48.174;11.756;2023-06-05T02:21:55;14.63;;;11.40;;
10232;SDS011;5161;48.174;11.756;2023-06-05T02:24:21;12.53;;;11.43;;
10232;SDS011;5161;48.174;11.756;2023-06-05T02:26:47;13.17;;;11.47;;
10232;SDS011;5161;48.174;11.756;2023-06-05T02:29:13;12.90;;;11.60;;
10232;SDS011;5161;48.174;11.756;2023-06-05T02:31:39;12.50;;;11.10;;
10232;SDS011;5161;48.174;11.756;2023-06-05T02:34:04;13.10;;;11.30;;
10232;SDS011;5161;48.174;11.756;2023-06-05T02:36:30;11.90;;;10.90;;
10232;SDS011;5161;48.174;11.756;2023-06-05T02:38:58;12.63;;;11.40;;
10232;SDS011;5161;48.174;11.756;2023-06-05T02:41:25;12.20;;;11.03;;
10232;SDS011;5161;48.174;11.756;2023-06-05T02:43:52;13.50;;;12.10;;
10232;SDS011;5161;48.174;11.756;2023-06-05T02:46:18;13.07;;;11.77;;
10232;SDS011;5161;48.174;11.756;2023-06-05T02:48:44;15.43;;;11.17;;
10232;SDS011;5161;48.174;11.756;2023-06-05T02:51:10;13.53;;;11.50;;
10232;SDS011;5161;48.174;11.756;2023-06-05T02:53:36;12.93;;;11.73;;
10232;SDS011;5161;48.174;11.756;2023-06-05T02:56:02;12.43;;;11.20;;
10232;SDS011;5161;48.174;11.756;2023-06-05T02:58:28;12.57;;;11.37;;
10232;SDS011;5161;48.174;11.756;2023-06-05T03:00:54;12.17;;;11.13;;
10232;SDS011;5161;48.174;11.756;2023-06-05T03:03:21;12.87;;;11.23;;
10232;SDS011;5161;48.174;11.756;2023-06-05T03:05:51;12.90;;;11.60;;
10232;SDS011;5161;48.174;11.756;2023-06-05T03:08:21;14.50;;;11.80;;
10232;SDS011;5161;48.174;11.756;2023-06-05T03:10:46;12.83;;;11.47;;
10232;SDS011;5161;48.174;11.756;2023-06-05T03:13:13;14.47;;;12.07;;
10232;SDS011;5161;48.174;11.756;2023-06-05T03:15:38;12.37;;;11.13;;
10232;SDS011;5161;48.174;11.756;2023-06-05T03:18:04;12.17;;;11.03;;
10232;SDS011;5161;48.174;11.756;2023-06-05T03:20:30;12.60;;;11.30;;
10232;SDS011;5161;48.174;11.756;2023-06-05T03:22:55;13.60;;;12.20;;
10232;SDS011;5161;48.174;11.756;2023-06-05T03:25:22;14.80;;;11.50;;
10232;SDS011;5161;48.174;11.756;2023-06-05T03:27:48;12.10;;;11.00;;
10232;SDS011;5161;48.174;11.756;2023-06-05T03:30:14;12.67;;;11.37;;
10232;SDS011;5161;48.174;11.756;2023-06-05T03:32:44;13.27;;;12.07;;
10232;SDS011;5161;48.174;11.756;2023-06-05T03:35:09;12.33;;;11.13;;
10232;SDS011;5161;48.174;11.756;2023-06-05T03:37:35;12.07;;;10.90;;
10232;SDS011;5161;48.174;11.756;2023-06-05T03:40:00;12.70;;;11.60;;
10232;SDS011;5161;48.174;11.756;2023-06-05T03:42:26;12.20;;;11.10;;
10232;SDS011;5161;48.174;11.756;2023-06-05T03:44:52;13.00;;;11.67;;
10232;SDS011;5161;48.174;11.756;2023-06-05T03:47:17;12.37;;;11.20;;
10232;SDS011;5161;48.174;11.756;2023-06-05T03:49:46;12.30;;;11.10;;
10232;SDS011;5161;48.174;11.756;2023-06-05T03:52:12;12.50;;;11.30;;
10232;SDS011;5161;48.174;11.756;2023-06-05T03:54:46;13.17;;;11.97;;
10232;SDS011;5161;48.174;11.756;2023-06-05T03:57:12;12.47;;;11.37;;
10232;SDS011;5161;48.174;11.756;2023-06-05T03:59:39;12.30;;;11.20;;
10232;SDS011;5161;48.174;11.756;2023-06-05T04:02:05;12.37;;;11.23;;
10232;SDS011;5161;48.174;11.756;2023-06-05T04:04:32;12.10;;;10.90;;
10232;SDS011;5161;48.174;11.756;2023-06-05T04:06:57;12.10;;;11.00;;
10232;SDS011;5161;48.174;11.756;2023-06-05T04:09:23;13.23;;;11.87;;
10232;SDS011;5161;48.174;11.756;2023-06-05T04:11:48;12.60;;;11.23;;
10232;SDS011;5161;48.174;11.756;2023-06-05T04:14:15;12.73;;;11.50;;
10232;SDS011;5161;48.174;11.756;2023-06-05T04:16:40;13.63;;;10.80;;
10232;SDS011;5161;48.174;11.756;2023-06-05T04:19:10;13.87;;;12.17;;
10232;SDS011;5161;48.174;11.756;2023-06-05T04:21:37;12.47;;;10.90;;
10232;SDS011;5161;48.174;11.756;2023-06-05T04:24:06;14.10;;;11.97;;
10232;SDS011;5161;48.174;11.756;2023-06-05T04:26:35;14.27;;;11.77;;
10232;SDS011;5161;48.174;11.756;2023-06-05T04:29:02;13.40;;;12.00;;
10232;SDS011;5161;48.174;11.756;2023-06-05T04:31:34;13.23;;;11.80;;
10232;SDS011;5161;48.174;11.756;2023-06-05T04:34:00;13.20;;;11.83;;
10232;SDS011;5161;48.174;11.756;2023-06-05T04:36:27;13.83;;;12.27;;
10232;SDS011;5161;48.174;11.756;2023-06-05T04:38:53;14.67;;;12.50;;
10232;SDS011;5161;48.174;11.756;2023-06-05T04:41:19;13.43;;;12.13;;
10232;SDS011;5161;48.174;11.756;2023-06-05T04:43:46;14.53;;;11.77;;
10232;SDS011;5161;48.174;11.756;2023-06-05T04:46:12;13.77;;;12.37;;
10232;SDS011;5161;48.174;11.756;2023-06-05T04:48:37;13.57;;;11.77;;
10232;SDS011;5161;48.174;11.756;2023-06-05T04:51:03;13.67;;;12.30;;
10232;SDS011;5161;48.174;11.756;2023-06-05T04:53:28;13.30;;;12.00;;
10232;SDS011;5161;48.174;11.756;2023-06-05T04:55:56;16.23;;;12.40;;
10232;SDS011;5161;48.174;11.756;2023-06-05T04:58:26;16.67;;;12.40;;
10232;SDS011;5161;48.174;11.756;2023-06-05T05:00:52;13.90;;;12.60;;
10232;SDS011;5161;48.174;11.756;2023-06-05T05:03:17;17.63;;;12.10;;
10232;SDS011;5161;48.174;11.756;2023-06-05T05:05:43;13.90;;;12.33;;
10232;SDS011;5161;48.174;11.756;2023-06-05T05:08:09;14.70;;;12.63;;
10232;SDS011;5161;48.174;11.756;2023-06-05T05:10:35;13.50;;;12.03;;
10232;SDS011;5161;48.174;11.756;2023-06-05T05:13:01;13.00;;;11.80;;
10232;SDS011;5161;48.174;11.756;2023-06-05T05:15:27;14.47;;;12.73;;
10232;SDS011;5161;48.174;11.756;2023-06-05T05:17:56;13.23;;;11.90;;
10232;SDS011;5161;48.174;11.756;2023-06-05T05:20:22;16.23;;;12.33;;
10232;SDS011;5161;48.174;11.756;2023-06-05T05:22:48;14.20;;;12.73;;
10232;SDS011;5161;48.174;11.756;2023-06-05T05:25:14;16.67;;;12.47;;
10232;SDS011;5161;48.174;11.756;2023-06-05T05:27:40;14.10;;;12.20;;
10232;SDS011;5161;48.174;11.756;2023-06-05T05:30:07;13.60;;;12.40;;
10232;SDS011;5161;48.174;11.756;2023-06-05T05:32:33;15.07;;;12.50;;
10232;SDS011;5161;48.174;11.756;2023-06-05T05:34:58;16.13;;;12.73;;
10232;SDS011;5161;48.174;11.756;2023-06-05T05:37:24;14.20;;;12.73;;
10232;SDS011;5161;48.174;11.756;2023-06-05T05:39:51;14.47;;;13.07;;
10232;SDS011;5161;48.174;11.756;2023-06-05T05:42:16;14.67;;;13.17;;
10232;SDS011;5161;48.174;11.756;2023-06-05T05:44:42;15.10;;;12.83;;
10232;SDS011;5161;48.174;11.756;2023-06-05T05:47:09;13.97;;;12.50;;
10232;SDS011;5161;48.174;11.756;2023-06-05T05:49:35;16.80;;;12.60;;
10232;SDS011;5161;48.174;11.756;2023-06-05T05:52:00;14.63;;;13.03;;
10232;SDS011;5161;48.174;11.756;2023-06-05T05:54:26;15.27;;;12.67;;
10232;SDS011;5161;48.174;11.756;2023-06-05T05:56:52;14.57;;;12.90;;
10232;SDS011;5161;48.174;11.756;2023-06-05T05:59:21;14.53;;;12.73;;
10232;SDS011;5161;48.174;11.756;2023-06-05T06:01:47;15.97;;;13.00;;
10232;SDS011;5161;48.174;11.756;2023-06-05T06:04:13;14.00;;;12.67;;
10232;SDS011;5161;48.174;11.756;2023-06-05T06:06:41;14.57;;;13.17;;
10232;SDS011;5161;48.174;11.756;2023-06-05T06:09:07;14.50;;;12.87;;
10232;SDS011;5161;48.174;11.756;2023-06-05T06:11:33;15.23;;;12.93;;
10232;SDS011;5161;48.174;11.756;2023-06-05T06:14:01;14.13;;;12.73;;
10232;SDS011;5161;48.174;11.756;2023-06-05T06:16:26;14.07;;;12.60;;
10232;SDS011;5161;48.174;11.756;2023-06-05T06:18:52;18.47;;;12.20;;
10232;SDS011;5161;48.174;11.756;2023-06-05T06:21:17;13.33;;;11.97;;
10232;SDS011;5161;48.174;11.756;2023-06-05T06:23:43;13.77;;;12.40;;
10232;SDS011;5161;48.174;11.756;2023-06-05T06:26:10;13.80;;;12.40;;
10232;SDS011;5161;48.174;11.756;2023-06-05T06:28:36;12.80;;;11.40;;
10232;SDS011;5161;48.174;11.756;2023-06-05T06:31:02;12.80;;;11.47;;
10232;SDS011;5161;48.174;11.756;2023-06-05T06:33:28;15.90;;;11.90;;
10232;SDS011;5161;48.174;11.756;2023-06-05T06:35:54;14.73;;;11.60;;
10232;SDS011;5161;48.174;11.756;2023-06-05T06:38:23;13.77;;;11.50;;
10232;SDS011;5161;48.174;11.756;2023-06-05T06:40:52;14.80;;;11.67;;
10232;SDS011;5161;48.174;11.756;2023-06-05T06:43:17;15.00;;;11.40;;
10232;SDS011;5161;48.174;11.756;2023-06-05T06:45:43;14.53;;;11.90;;
10232;SDS011;5161;48.174;11.756;2023-06-05T06:48:09;12.67;;;11.33;;
10232;SDS011;5161;48.174;11.756;2023-06-05T06:50:34;16.40;;;11.63;;
10232;SDS011;5161;48.174;11.756;2023-06-05T06:53:00;12.67;;;11.33;;
10232;SDS011;5161;48.174;11.756;2023-06-05T06:55:26;11.50;;;10.40;;
10232;SDS011;5161;48.174;11.756;2023-06-05T06:57:51;12.87;;;11.07;;
10232;SDS011;5161;48.174;11.756;2023-06-05T07:00:17;12.00;;;10.70;;
10232;SDS011;5161;48.174;11.756;2023-06-05T07:02:45;11.60;;;10.43;;
10232;SDS011;5161;48.174;11.756;2023-06-05T07:05:10;13.13;;;11.30;;
10232;SDS011;5161;48.174;11.756;2023-06-05T07:07:36;11.63;;;10.43;;
10232;SDS011;5161;48.174;11.756;2023-06-05T07:10:02;11.70;;;10.50;;
10232;SDS011;5161;48.174;11.756;2023-06-05T07:12:27;11.23;;;10.10;;
10232;SDS011;5161;48.174;11.756;2023-06-05T07:14:53;12.07;;;10.97;;
10232;SDS011;5161;48.174;11.756;2023-06-05T07:17:19;12.43;;;11.13;;
10232;SDS011;5161;48.174;11.756;2023-06-05T07:19:45;12.93;;;11.03;;
10232;SDS011;5161;48.174;11.756;2023-06-05T07:22:10;11.73;;;10.53;;
10232;SDS011;5161;48.174;11.756;2023-06-05T07:24:36;12.03;;;10.77;;
10232;SDS011;5161;48.174;11.756;2023-06-05T07:27:03;12.33;;;10.80;;
10232;SDS011;5161;48.174;11.756;2023-06-05T07:29:29;13.40;;;10.63;;
10232;SDS011;5161;48.174;11.756;2023-06-05T07:31:55;15.57;;;9.37;;
10232;SDS011;5161;48.174;11.756;2023-06-05T07:34:22;10.90;;;9.23;;
10232;SDS011;5161;48.174;11.756;2023-06-05T07:36:49;10.23;;;8.90;;
10232;SDS011;5161;48.174;11.756;2023-06-05T07:39:16;10.47;;;9.47;;
10232;SDS011;5161;48.174;11.756;2023-06-05T07:41:45;13.07;;;9.63;;
10232;SDS011;5161;48.174;11.756;2023-06-05T07:44:11;10.73;;;9.53;;
10232;SDS011;5161;48.174;11.756;2023-06-05T07:46:39;9.73;;;8.77;;
10232;SDS011;5161;48.174;11.756;2023-06-05T07:49:05;9.60;;;8.63;;
10232;SDS011;5161;48.174;11.756;2023-06-05T07:51:32;9.63;;;8.73;;
10232;SDS011;5161;48.174;11.756;2023-06-05T07:54:01;10.27;;;9.20;;
10232;SDS011;5161;48.174;11.756;2023-06-05T07:56:27;13.73;;;9.33;;
10232;SDS011;5161;48.174;11.756;2023-06-05T07:58:53;10.03;;;9.03;;
10232;SDS011;5161;48.174;11.756;2023-06-05T08:01:18;10.63;;;9.53;;
10232;SDS011;5161;48.174;11.756;2023-06-05T08:03:46;10.63;;;9.20;;
10232;SDS011;5161;48.174;11.756;2023-06-05T08:06:11;11.77;;;9.20;;
10232;SDS011;5161;48.174;11.756;2023-06-05T08:08:37;10.53;;;8.80;;
10232;SDS011;5161;48.174;11.756;2023-06-05T08:11:02;9.67;;;8.67;;
10232;SDS011;5161;48.174;11.756;2023-06-05T08:13:28;9.73;;;8.83;;
10232;SDS011;5161;48.174;11.756;2023-06-05T08:15:54;10.57;;;8.80;;
10232;SDS011;5161;48.174;11.756;2023-06-05T08:18:20;10.40;;;8.83;;
10232;SDS011;5161;48.174;11.756;2023-06-05T08:20:46;9.83;;;8.93;;
10232;SDS011;5161;48.174;11.756;2023-06-05T08:23:11;10.93;;;8.70;;
10232;SDS011;5161;48.174;11.756;2023-06-05T08:25:37;11.50;;;9.53;;
10232;SDS011;5161;48.174;11.756;2023-06-05T08:28:03;10.20;;;9.20;;
10232;SDS011;5161;48.174;11.756;2023-06-05T08:30:28;10.83;;;9.30;;
10232;SDS011;5161;48.174;11.756;2023-06-05T08:32:54;9.83;;;8.57;;
10232;SDS011;5161;48.174;11.756;2023-06-05T08:35:20;9.47;;;8.67;;
10232;SDS011;5161;48.174;11.756;2023-06-05T08:37:45;9.70;;;8.67;;
10232;SDS011;5161;48.174;11.756;2023-06-05T08:40:11;9.77;;;8.87;;
10232;SDS011;5161;48.174;11.756;2023-06-05T08:42:38;10.77;;;8.90;;
10232;SDS011;5161;48.174;11.756;2023-06-05T08:45:07;10.47;;;9.10;;
10232;SDS011;5161;48.174;11.756;2023-06-05T08:47:35;10.47;;;9.10;;
10232;SDS011;5161;48.174;11.756;2023-06-05T08:50:03;10.17;;;9.17;;
10232;SDS011;5161;48.174;11.756;2023-06-05T08:52:32;10.17;;;9.27;;
10232;SDS011;5161;48.174;11.756;2023-06-05T08:55:00;10.93;;;9.60;;
10232;SDS011;5161;48.174;11.756;2023-06-05T08:57:28;10.03;;;9.23;;
10232;SDS011;5161;48.174;11.756;2023-06-05T08:59:53;9.80;;;8.80;;
10232;SDS011;5161;48.174;11.756;2023-06-05T09:02:19;9.70;;;8.77;;
10232;SDS011;5161;48.174;11.756;2023-06-05T09:04:45;10.20;;;9.20;;
10232;SDS011;5161;48.174;11.756;2023-06-05T09:07:12;10.10;;;9.13;;
10232;SDS011;5161;48.174;11.756;2023-06-05T09:09:37;10.13;;;8.90;;
10232;SDS011;5161;48.174;11.756;2023-06-05T09:12:03;9.90;;;8.93;;
10232;SDS011;5161;48.174;11.756;2023-06-05T09:14:31;9.93;;;9.10;;
10232;SDS011;5161;48.174;11.756;2023-06-05T09:16:58;11.10;;;9.50;;
10232;SDS011;5161;48.174;11.756;2023-06-05T09:19:25;10.20;;;9.20;;
10232;SDS011;5161;48.174;11.756;2023-06-05T09:22:03;10.00;;;9.10;;
10232;SDS011;5161;48.174;11.756;2023-06-05T09:24:31;11.87;;;8.73;;
10232;SDS011;5161;48.174;11.756;2023-06-05T09:29:30;10.07;;;8.90;;
10232;SDS011;5161;48.174;11.756;2023-06-05T09:32:02;9.50;;;8.63;;
10232;SDS011;5161;48.174;11.756;2023-06-05T09:34:29;11.50;;;9.73;;
10232;SDS011;5161;48.174;11.756;2023-06-05T09:36:55;10.70;;;9.70;;
10232;SDS011;5161;48.174;11.756;2023-06-05T09:39:22;10.17;;;9.17;;
10232;SDS011;5161;48.174;11.756;2023-06-05T09:41:51;9.23;;;8.43;;
10232;SDS011;5161;48.174;11.756;2023-06-05T09:44:18;9.10;;;8.27;;
10232;SDS011;5161;48.174;11.756;2023-06-05T09:47:00;8.70;;;7.80;;
10232;SDS011;5161;48.174;11.756;2023-06-05T09:52:05;9.80;;;8.80;;
10232;SDS011;5161;48.174;11.756;2023-06-05T09:54:32;11.80;;;9.20;;
10232;SDS011;5161;48.174;11.756;2023-06-05T09:57:01;9.60;;;8.70;;
10232;SDS011;5161;48.174;11.756;2023-06-05T09:59:29;9.73;;;8.77;;
10232;SDS011;5161;48.174;11.756;2023-06-05T10:02:01;11.03;;;9.30;;
10232;SDS011;5161;48.174;11.756;2023-06-05T10:04:29;9.80;;;8.97;;
10232;SDS011;5161;48.174;11.756;2023-06-05T10:07:17;9.33;;;8.57;;
10232;SDS011;5161;48.174;11.756;2023-06-05T10:09:44;10.80;;;9.70;;
10232;SDS011;5161;48.174;11.756;2023-06-05T10:12:14;9.27;;;8.47;;
10232;SDS011;5161;48.174;11.756;2023-06-05T10:14:41;9.50;;;8.60;;
10232;SDS011;5161;48.174;11.756;2023-06-05T10:17:08;9.20;;;8.40;;
10232;SDS011;5161;48.174;11.756;2023-06-05T10:19:36;9.47;;;8.53;;
10232;SDS011;5161;48.174;11.756;2023-06-05T10:22:05;11.13;;;8.50;;
10232;SDS011;5161;48.174;11.756;2023-06-05T10:24:35;9.90;;;9.10;;
10232;SDS011;5161;48.174;11.756;2023-06-05T10:35:01;8.77;;;7.70;;
10232;SDS011;5161;48.174;11.756;2023-06-05T10:40:32;11.97;;;8.50;;
10232;SDS011;5161;48.174;11.756;2023-06-05T10:45:50;9.17;;;8.27;;
10232;SDS011;5161;48.174;11.756;2023-06-05T10:48:15;7.70;;;7.10;;
10232;SDS011;5161;48.174;11.756;2023-06-05T10:50:41;9.93;;;7.90;;
10232;SDS011;5161;48.174;11.756;2023-06-05T10:53:07;8.40;;;7.70;;
10232;SDS011;5161;48.174;11.756;2023-06-05T10:55:52;8.10;;;7.40;;
10232;SDS011;5161;48.174;11.756;2023-06-05T10:58:18;8.07;;;7.30;;
10232;SDS011;5161;48.174;11.756;2023-06-05T11:06:23;8.20;;;7.40;;
10232;SDS011;5161;48.174;11.756;2023-06-05T11:14:42;9.90;;;7.87;;
10232;SDS011;5161;48.174;11.756;2023-06-05T11:17:28;8.63;;;7.93;;
10232;SDS011;5161;48.174;11.756;2023-06-05T11:19:55;8.23;;;7.50;;
10232;SDS011;5161;48.174;11.756;2023-06-05T11:22:21;8.20;;;7.50;;
10232;SDS011;5161;48.174;11.756;2023-06-05T11:25:23;7.93;;;7.33;;
10232;SDS011;5161;48.174;11.756;2023-06-05T11:27:43;7.77;;;7.07;;
10232;SDS011;5161;48.174;11.756;2023-06-05T11:32:39;8.47;;;7.83;;
10232;SDS011;5161;48.174;11.756;2023-06-05T11:35:05;8.37;;;7.43;;
10232;SDS011;5161;48.174;11.756;2023-06-05T11:37:33;7.83;;;7.23;;
10232;SDS011;5161;48.174;11.756;2023-06-05T11:40:01;7.60;;;7.00;;
10232;SDS011;5161;48.174;11.756;2023-06-05T11:42:31;8.27;;;7.50;;
10232;SDS011;5161;48.174;11.756;2023-06-05T11:44:56;7.93;;;7.13;;
10232;SDS011;5161;48.174;11.756;2023-06-05T11:47:25;8.20;;;7.40;;
10232;SDS011;5161;48.174;11.756;2023-06-05T11:50:07;8.10;;;7.40;;
10232;SDS011;5161;48.174;11.756;2023-06-05T11:52:33;8.70;;;7.20;;
10232;SDS011;5161;48.174;11.756;2023-06-05T11:55:10;8.10;;;7.43;;
10232;SDS011;5161;48.174;11.756;2023-06-05T11:57:45;9.33;;;7.07;;
10232;SDS011;5161;48.174;11.756;2023-06-05T12:00:14;7.83;;;7.23;;
10232;SDS011;5161;48.174;11.756;2023-06-05T12:02:41;7.47;;;6.77;;
10232;SDS011;5161;48.174;11.756;2023-06-05T12:05:08;10.60;;;6.97;;
10232;SDS011;5161;48.174;11.756;2023-06-05T12:07:34;7.93;;;7.23;;
10232;SDS011;5161;48.174;11.756;2023-06-05T12:10:04;9.07;;;7.00;;
10232;SDS011;5161;48.174;11.756;2023-06-05T12:12:34;9.30;;;7.00;;
10232;SDS011;5161;48.174;11.756;2023-06-05T12:15:13;7.27;;;6.67;;
10232;SDS011;5161;48.174;11.756;2023-06-05T12:17:48;8.10;;;7.27;;
10232;SDS011;5161;48.174;11.756;2023-06-05T12:20:18;7.53;;;6.90;;
10232;SDS011;5161;48.174;11.756;2023-06-05T12:22:44;7.63;;;6.93;;
10232;SDS011;5161;48.174;11.756;2023-06-05T12:25:20;8.00;;;7.23;;
10232;SDS011;5161;48.174;11.756;2023-06-05T12:27:46;8.87;;;7.17;;
10232;SDS011;5161;48.174;11.756;2023-06-05T12:30:13;7.50;;;6.80;;
10232;SDS011;5161;48.174;11.756;2023-06-05T12:32:41;8.33;;;7.17;;
10232;SDS011;5161;48.174;11.756;2023-06-05T12:35:21;7.37;;;6.77;;
10232;SDS011;5161;48.174;11.756;2023-06-05T12:37:48;7.50;;;6.90;;
10232;SDS011;5161;48.174;11.756;2023-06-05T12:40:15;8.23;;;7.27;;
10232;SDS011;5161;48.174;11.756;2023-06-05T12:42:45;8.10;;;7.33;;
10232;SDS011;5161;48.174;11.756;2023-06-05T12:45:12;7.67;;;6.97;;
10232;SDS011;5161;48.174;11.756;2023-06-05T12:47:38;7.00;;;6.40;;
10232;SDS011;5161;48.174;11.756;2023-06-05T12:50:05;6.93;;;6.33;;
10232;SDS011;5161;48.174;11.756;2023-06-05T12:52:32;8.60;;;6.00;;
10232;SDS011;5161;48.174;11.756;2023-06-05T12:54:58;6.57;;;5.97;;
10232;SDS011;5161;48.174;11.756;2023-06-05T12:57:24;6.40;;;5.80;;
10232;SDS011;5161;48.174;11.756;2023-06-05T12:59:51;6.30;;;5.80;;
10232;SDS011;5161;48.174;11.756;2023-06-05T13:02:18;5.80;;;5.30;;
10232;SDS011;5161;48.174;11.756;2023-06-05T13:04:47;6.30;;;5.80;;
10232;SDS011;5161;48.174;11.756;2023-06-05T13:07:12;5.87;;;5.33;;
10232;SDS011;5161;48.174;11.756;2023-06-05T13:09:38;6.13;;;5.37;;
10232;SDS011;5161;48.174;11.756;2023-06-05T13:12:04;7.00;;;5.37;;
10232;SDS011;5161;48.174;11.756;2023-06-05T13:14:33;7.20;;;5.53;;
10232;SDS011;5161;48.174;11.756;2023-06-05T13:16:59;5.57;;;5.17;;
10232;SDS011;5161;48.174;11.756;2023-06-05T13:19:25;5.30;;;5.00;;
10232;SDS011;5161;48.174;11.756;2023-06-05T13:21:51;5.13;;;4.83;;
10232;SDS011;5161;48.174;11.756;2023-06-05T13:24:17;5.60;;;5.10;;
10232;SDS011;5161;48.174;11.756;2023-06-05T13:26:43;5.43;;;5.03;;
10232;SDS011;5161;48.174;11.756;2023-06-05T13:29:09;6.03;;;4.83;;
10232;SDS011;5161;48.174;11.756;2023-06-05T13:31:35;6.03;;;5.53;;
10232;SDS011;5161;48.174;11.756;2023-06-05T13:34:01;6.93;;;5.57;;
10232;SDS011;5161;48.174;11.756;2023-06-05T13:36:27;8.57;;;5.40;;
10232;SDS011;5161;48.174;11.756;2023-06-05T13:38:53;6.03;;;4.90;;
10232;SDS011;5161;48.174;11.756;2023-06-05T13:41:19;10.03;;;5.10;;
10232;SDS011;5161;48.174;11.756;2023-06-05T13:43:46;5.40;;;5.00;;
10232;SDS011;5161;48.174;11.756;2023-06-05T13:46:11;7.70;;;5.53;;
10232;SDS011;5161;48.174;11.756;2023-06-05T13:48:37;5.73;;;5.20;;
10232;SDS011;5161;48.174;11.756;2023-06-05T13:51:03;5.60;;;5.10;;
10232;SDS011;5161;48.174;11.756;2023-06-05T13:53:29;6.20;;;5.60;;
10232;SDS011;5161;48.174;11.756;2023-06-05T13:56:00;5.80;;;5.40;;
10232;SDS011;5161;48.174;11.756;2023-06-05T13:58:26;5.60;;;5.20;;
10232;SDS011;5161;48.174;11.756;2023-06-05T14:00:52;5.90;;;5.33;;
10232;SDS011;5161;48.174;11.756;2023-06-05T14:03:18;8.43;;;5.73;;
10232;SDS011;5161;48.174;11.756;2023-06-05T14:05:43;6.37;;;5.60;;
10232;SDS011;5161;48.174;11.756;2023-06-05T14:08:09;6.17;;;5.70;;
10232;SDS011;5161;48.174;11.756;2023-06-05T14:10:34;6.47;;;5.73;;
10232;SDS011;5161;48.174;11.756;2023-06-05T14:13:01;5.83;;;5.40;;
10232;SDS011;5161;48.174;11.756;2023-06-05T14:15:27;6.63;;;6.03;;
10232;SDS011;5161;48.174;11.756;2023-06-05T14:17:53;6.23;;;5.77;;
10232;SDS011;5161;48.174;11.756;2023-06-05T14:20:19;6.23;;;5.73;;
10232;SDS011;5161;48.174;11.756;2023-06-05T14:22:45;6.83;;;5.63;;
10232;SDS011;5161;48.174;11.756;2023-06-05T14:25:11;6.60;;;5.90;;
10232;SDS011;5161;48.174;11.756;2023-06-05T14:27:36;5.53;;;5.13;;
10232;SDS011;5161;48.174;11.756;2023-06-05T14:30:02;6.30;;;5.77;;
10232;SDS011;5161;48.174;11.756;2023-06-05T14:32:28;5.97;;;5.47;;
10232;SDS011;5161;48.174;11.756;2023-06-05T14:34:54;5.97;;;5.37;;
10232;SDS011;5161;48.174;11.756;2023-06-05T14:37:19;6.13;;;5.50;;
10232;SDS011;5161;48.174;11.756;2023-06-05T14:39:45;5.93;;;5.40;;
10232;SDS011;5161;48.174;11.756;2023-06-05T14:42:10;5.53;;;5.13;;
10232;SDS011;5161;48.174;11.756;2023-06-05T14:44:36;5.90;;;5.40;;
10232;SDS011;5161;48.174;11.756;2023-06-05T14:47:02;5.97;;;5.40;;
10232;SDS011;5161;48.174;11.756;2023-06-05T14:49:27;5.47;;;4.97;;
10232;SDS011;5161;48.174;11.756;2023-06-05T14:51:53;5.30;;;4.90;;
10232;SDS011;5161;48.174;11.756;2023-06-05T14:54:18;5.60;;;4.93;;
10232;SDS011;5161;48.174;11.756;2023-06-05T14:56:44;5.40;;;5.00;;
10232;SDS011;5161;48.174;11.756;2023-06-05T14:59:12;5.50;;;5.10;;
10232;SDS011;5161;48.174;11.756;2023-06-05T15:01:39;6.23;;;5.63;;
10232;SDS011;5161;48.174;11.756;2023-06-05T15:04:05;6.40;;;5.77;;
10232;SDS011;5161;48.174;11.756;2023-06-05T15:06:30;5.93;;;5.47;;
10232;SDS011;5161;48.174;11.756;2023-06-05T15:08:56;5.93;;;5.53;;
10232;SDS011;5161;48.174;11.756;2023-06-05T15:11:21;6.63;;;5.77;;